Time;durP1;ratioP1;P1;durP2;ratioP2;P2;SDS_P1;SDS_P2;PMS_P1;PMS_P2;Temp;Humidity;BMP_temperature;BMP_pressure;BME280_temperature;BME280_humidity;BME280_pressure;Samples;Min_cycle;Max_cycle;Signal;HPM_P1;HPM_P2
2023/05/31 00:01:48;;;;;;;6.37;1.93;;;11.70;99.90;;;;;;5014529;28;20159;-67
2023/05/31 00:04:14;;;;;;;3.77;1.47;;;11.60;99.90;;;;;;5013553;28;20100;-67
2023/05/31 00:06:39;;;;;;;7.70;2.60;;;11.60;99.90;;;;;;5014102;28;20037;-67
2023/05/31 00:09:05;;;;;;;8.27;2.10;;;11.60;99.90;;;;;;5017554;28;20038;-67
2023/05/31 00:11:31;;;;;;;5.50;1.87;;;11.50;99.90;;;;;;5018601;28;20026;-67
2023/05/31 00:13:57;;;;;;;4.23;2.13;;;11.50;99.90;;;;;;5014889;28;20044;-67
2023/05/31 00:16:22;;;;;;;5.13;2.40;;;11.50;99.90;;;;;;5024522;28;20479;-68
2023/05/31 00:18:48;;;;;;;6.53;2.23;;;11.50;99.90;;;;;;5013630;28;20443;-67
2023/05/31 00:21:15;;;;;;;3.43;1.87;;;11.50;99.90;;;;;;5013348;28;20052;-67
2023/05/31 00:23:40;;;;;;;2.78;1.70;;;11.50;99.90;;;;;;5013748;28;20033;-67
2023/05/31 00:26:06;;;;;;;5.50;1.93;;;11.40;99.90;;;;;;5010213;28;20037;-66
2023/05/31 00:28:32;;;;;;;4.07;1.90;;;11.40;99.90;;;;;;5015655;28;20400;-67
2023/05/31 00:30:57;;;;;;;2.83;2.13;;;11.40;99.90;;;;;;5021582;28;20030;-66
2023/05/31 00:33:23;;;;;;;5.73;2.10;;;11.40;99.90;;;;;;5015256;28;20041;-67
2023/05/31 00:35:49;;;;;;;3.70;2.03;;;11.40;99.90;;;;;;5033517;28;20076;-67
2023/05/31 00:38:15;;;;;;;3.87;2.03;;;11.40;99.90;;;;;;5013246;28;20116;-67
2023/05/31 00:40:40;;;;;;;5.10;2.20;;;11.40;99.90;;;;;;5033625;28;20036;-67
2023/05/31 00:43:06;;;;;;;4.70;2.40;;;11.40;99.90;;;;;;5022552;28;20022;-76
2023/05/31 00:45:33;;;;;;;4.83;2.23;;;11.40;99.90;;;;;;5021391;28;20026;-67
2023/05/31 00:48:01;;;;;;;5.38;2.22;;;11.30;99.90;;;;;;5012242;28;20105;-67
2023/05/31 00:50:27;;;;;;;4.18;2.38;;;11.30;99.90;;;;;;5027735;28;20072;-66
2023/05/31 00:52:56;;;;;;;5.82;2.10;;;11.30;99.90;;;;;;5029768;28;20018;-66
2023/05/31 00:55:22;;;;;;;4.03;2.15;;;11.30;99.90;;;;;;5016790;28;20065;-67
2023/05/31 00:57:48;;;;;;;3.43;1.73;;;11.20;99.90;;;;;;5016110;28;20459;-67
2023/05/31 01:00:15;;;;;;;8.97;1.93;;;11.20;99.90;;;;;;5017502;28;20064;-67
2023/05/31 01:02:41;;;;;;;5.13;2.00;;;11.20;99.90;;;;;;5024072;28;20014;-65
2023/05/31 01:05:08;;;;;;;6.32;1.95;;;11.20;99.90;;;;;;5016571;28;20149;-67
2023/05/31 01:07:34;;;;;;;3.15;1.90;;;11.10;99.90;;;;;;5016692;28;20038;-67
2023/05/31 01:10:01;;;;;;;4.40;2.13;;;11.20;99.90;;;;;;5016235;28;20026;-66
2023/05/31 01:12:52;;;;;;;3.30;1.98;;;11.10;99.90;;;;;;5030492;28;20116;-66
2023/05/31 01:15:27;;;;;;;4.45;2.10;;;11.20;99.90;;;;;;5017526;28;20041;-66
2023/05/31 01:18:19;;;;;;;6.53;2.38;;;11.10;99.90;;;;;;5019250;28;20345;-66
2023/05/31 01:20:47;;;;;;;3.78;1.85;;;11.10;99.90;;;;;;5023163;28;20121;-67
2023/05/31 01:23:40;;;;;;;3.92;2.50;;;11.10;99.90;;;;;;5020584;28;20025;-66
2023/05/31 01:26:37;;;;;;;6.22;2.10;;;11.10;99.90;;;;;;5017891;28;20033;-76
2023/05/31 01:29:16;;;;;;;7.82;2.30;;;11.00;99.90;;;;;;5015392;28;20181;-76
2023/05/31 01:31:45;;;;;;;5.90;2.40;;;11.00;99.90;;;;;;5020524;28;20029;-66
2023/05/31 01:34:12;;;;;;;7.30;2.25;;;11.00;99.90;;;;;;5016914;28;20030;-67
2023/05/31 01:36:38;;;;;;;;;;;11.00;99.90;;;;;;5018063;28;20432;-67
2023/05/31 01:39:05;;;;;;;5.90;2.07;;;11.00;99.90;;;;;;5016519;28;20010;-66
2023/05/31 01:41:33;;;;;;;;;;;11.00;99.90;;;;;;5030145;28;20075;-66
2023/05/31 01:44:00;;;;;;;7.07;3.00;;;10.90;99.90;;;;;;5018804;28;19919;-69
2023/05/31 01:46:27;;;;;;;4.68;2.58;;;10.90;99.90;;;;;;5016681;28;20077;-67
2023/05/31 01:48:53;;;;;;;8.93;2.22;;;10.90;99.90;;;;;;5022318;28;20026;-67
2023/05/31 01:51:23;;;;;;;5.05;2.33;;;10.80;99.90;;;;;;5020577;28;20034;-67
2023/05/31 01:53:49;;;;;;;6.38;2.60;;;10.80;99.90;;;;;;5017621;28;20021;-67
2023/05/31 01:56:17;;;;;;;6.10;2.40;;;10.80;99.90;;;;;;5021813;28;20332;-67
2023/05/31 01:58:48;;;;;;;5.65;2.45;;;10.80;99.90;;;;;;5017515;28;20310;-67
2023/05/31 02:01:16;;;;;;;6.88;2.47;;;10.80;99.90;;;;;;5033844;28;20026;-67
2023/05/31 02:03:42;;;;;;;9.40;3.25;;;10.70;99.90;;;;;;5019199;28;20018;-66
2023/05/31 02:06:12;;;;;;;5.43;2.45;;;10.70;99.90;;;;;;5025850;28;20030;-67
2023/05/31 02:08:39;;;;;;;4.90;2.55;;;10.70;99.90;;;;;;5014554;28;20064;-74
2023/05/31 02:11:05;;;;;;;5.25;2.88;;;10.70;99.90;;;;;;5016008;28;20473;-67
2023/05/31 02:13:31;;;;;;;3.63;2.47;;;10.60;99.90;;;;;;5018045;28;20113;-66
2023/05/31 02:15:57;;;;;;;5.47;2.50;;;10.60;99.90;;;;;;5021315;28;20049;-66
2023/05/31 02:18:26;;;;;;;4.90;2.25;;;10.50;99.90;;;;;;5024906;28;20030;-67
2023/05/31 02:20:52;;;;;;;10.25;2.75;;;10.60;99.90;;;;;;5024081;28;20029;-67
2023/05/31 02:23:19;;;;;;;6.40;2.95;;;10.50;99.90;;;;;;5029479;28;20030;-67
2023/05/31 02:25:49;;;;;;;3.85;2.35;;;10.60;99.90;;;;;;5027571;28;20090;-67
2023/05/31 02:28:15;;;;;;;6.78;2.97;;;10.50;99.90;;;;;;5014177;28;20605;-67
2023/05/31 02:30:41;;;;;;;5.97;2.47;;;10.50;99.90;;;;;;5016014;28;20033;-67
2023/05/31 02:33:08;;;;;;;6.68;2.45;;;10.50;99.90;;;;;;5027982;28;20033;-75
2023/05/31 02:35:34;;;;;;;7.10;2.55;;;10.40;99.90;;;;;;5018189;28;20104;-66
2023/05/31 02:38:00;;;;;;;7.10;2.80;;;10.40;99.90;;;;;;5021373;28;20076;-67
2023/05/31 02:40:25;;;;;;;6.53;2.67;;;10.40;99.90;;;;;;5014376;28;20424;-67
2023/05/31 02:42:52;;;;;;;6.30;2.97;;;10.40;99.90;;;;;;5014402;28;20022;-67
2023/05/31 02:45:18;;;;;;;6.78;2.17;;;10.40;99.90;;;;;;5015732;28;20029;-67
2023/05/31 02:47:44;;;;;;;7.63;2.73;;;10.40;99.90;;;;;;5014572;28;20478;-67
2023/05/31 02:50:11;;;;;;;5.50;2.60;;;10.40;99.90;;;;;;5019043;28;20038;-66
2023/05/31 02:52:37;;;;;;;;;;;10.30;99.90;;;;;;5014004;28;20029;-67
2023/05/31 02:55:03;;;;;;;5.03;2.38;;;10.30;99.90;;;;;;5015317;28;19918;-67
2023/05/31 02:57:29;;;;;;;6.70;2.70;;;10.30;99.90;;;;;;5017422;28;20046;-66
2023/05/31 03:00:00;;;;;;;5.87;2.47;;;10.30;99.90;;;;;;5026186;28;20076;-77
2023/05/31 03:02:25;;;;;;;5.63;2.47;;;10.20;99.90;;;;;;5017953;28;20029;-66
2023/05/31 03:04:52;;;;;;;6.37;3.47;;;10.20;99.90;;;;;;5022335;28;20017;-67
2023/05/31 03:07:18;;;;;;;5.75;2.30;;;10.20;99.90;;;;;;5014682;28;20371;-67
2023/05/31 03:09:43;;;;;;;5.80;2.63;;;10.20;99.90;;;;;;5030504;28;20022;-67
2023/05/31 03:12:10;;;;;;;7.13;2.90;;;10.10;99.90;;;;;;5022252;28;20038;-67
2023/05/31 03:14:36;;;;;;;6.03;2.88;;;10.10;99.90;;;;;;5012100;28;20061;-66
2023/05/31 03:17:03;;;;;;;8.97;2.87;;;10.10;99.90;;;;;;5013062;28;20068;-68
2023/05/31 03:19:28;;;;;;;7.72;2.95;;;10.10;99.90;;;;;;5012978;28;20031;-67
2023/05/31 03:21:54;;;;;;;6.07;2.60;;;10.00;99.90;;;;;;5016008;28;20033;-67
2023/05/31 03:24:20;;;;;;;8.30;3.00;;;10.00;99.90;;;;;;5023527;28;20025;-67
2023/05/31 03:26:46;;;;;;;8.07;2.47;;;10.00;99.90;;;;;;5014229;28;20705;-66
2023/05/31 03:29:12;;;;;;;8.50;2.97;;;10.00;99.90;;;;;;5014797;28;20075;-66
2023/05/31 03:31:38;;;;;;;9.07;2.83;;;10.00;99.90;;;;;;5015404;28;20088;-68
2023/05/31 03:34:03;;;;;;;10.77;3.10;;;10.00;99.90;;;;;;5032028;28;20320;-75
2023/05/31 03:36:29;;;;;;;8.47;3.40;;;10.10;99.90;;;;;;5019513;28;20065;-67
2023/05/31 03:38:55;;;;;;;9.00;3.60;;;10.10;99.90;;;;;;5024516;28;20122;-66
2023/05/31 03:41:21;;;;;;;7.47;3.33;;;10.10;99.90;;;;;;5014362;28;20097;-66
2023/05/31 03:43:46;;;;;;;9.70;3.70;;;10.10;99.90;;;;;;5024325;28;20030;-76
2023/05/31 03:46:12;;;;;;;8.97;3.00;;;10.20;99.90;;;;;;5024904;28;20045;-66
2023/05/31 03:48:38;;;;;;;6.43;3.10;;;10.20;99.90;;;;;;5017168;28;20030;-67
2023/05/31 03:51:04;;;;;;;9.13;3.83;;;10.20;99.90;;;;;;5019534;28;20060;-67
2023/05/31 03:53:29;;;;;;;7.33;2.80;;;10.20;99.90;;;;;;5021019;28;20377;-66
2023/05/31 03:55:55;;;;;;;7.77;3.70;;;10.30;99.90;;;;;;5019279;28;20045;-67
2023/05/31 03:58:21;;;;;;;7.67;3.50;;;10.30;99.90;;;;;;5028502;28;20052;-67
2023/05/31 04:00:46;;;;;;;6.07;3.00;;;10.30;99.90;;;;;;5014190;28;20093;-76
2023/05/31 04:03:13;;;;;;;8.30;2.70;;;10.30;99.90;;;;;;5019615;28;20328;-66
2023/05/31 04:05:39;;;;;;;5.68;3.30;;;10.30;99.90;;;;;;5016474;28;20046;-66
2023/05/31 04:08:04;;;;;;;6.97;2.97;;;10.40;99.90;;;;;;5013945;28;20030;-77
2023/05/31 04:10:31;;;;;;;9.00;2.67;;;10.40;99.90;;;;;;5011028;28;20447;-67
2023/05/31 04:12:57;;;;;;;24.85;3.92;;;10.40;99.90;;;;;;5013314;28;20163;-66
2023/05/31 04:15:22;;;;;;;6.40;3.60;;;10.40;99.90;;;;;;5013808;28;20439;-66
2023/05/31 04:17:48;;;;;;;9.37;3.70;;;10.40;99.90;;;;;;5029622;28;20029;-69
2023/05/31 04:20:16;;;;;;;16.97;3.77;;;10.50;99.90;;;;;;5013922;28;20041;-66
2023/05/31 04:22:42;;;;;;;8.38;3.42;;;10.50;99.90;;;;;;5017353;28;20080;-66
2023/05/31 04:25:12;;;;;;;10.68;3.72;;;10.50;99.90;;;;;;5015749;28;20096;-66
2023/05/31 04:27:40;;;;;;;9.77;4.20;;;10.60;99.90;;;;;;5017216;28;20053;-66
2023/05/31 04:30:07;;;;;;;7.82;3.17;;;10.70;99.90;;;;;;5023318;28;20032;-77
2023/05/31 04:32:34;;;;;;;;;;;10.70;99.90;;;;;;5019048;28;20040;-66
2023/05/31 04:35:04;;;;;;;13.00;3.78;;;10.70;99.90;;;;;;5021273;28;19909;-69
2023/05/31 04:37:30;;;;;;;7.05;3.28;;;10.80;99.90;;;;;;5021017;28;20433;-67
2023/05/31 04:39:59;;;;;;;7.85;3.55;;;10.80;99.90;;;;;;5019300;28;20030;-67
2023/05/31 04:42:26;;;;;;;7.53;3.28;;;10.90;99.90;;;;;;5013867;28;20034;-67
2023/05/31 04:44:58;;;;;;;10.13;3.47;;;10.90;99.90;;;;;;5021216;28;20025;-66
2023/05/31 04:47:29;;;;;;;11.88;3.33;;;11.00;99.90;;;;;;5020513;28;20030;-66
2023/05/31 04:49:59;;;;;;;6.15;2.72;;;11.10;99.90;;;;;;5020423;28;20033;-76
2023/05/31 04:52:30;;;;;;;6.90;3.30;;;11.10;99.90;;;;;;5020449;28;20038;-67
2023/05/31 04:54:57;;;;;;;10.13;3.95;;;11.10;99.90;;;;;;5020409;28;20041;-66
2023/05/31 04:57:24;;;;;;;6.82;3.30;;;11.20;99.90;;;;;;5021950;28;20029;-76
2023/05/31 04:59:50;;;;;;;9.07;3.38;;;11.20;99.90;;;;;;5019190;28;20324;-67
2023/05/31 05:02:17;;;;;;;8.53;3.87;;;11.30;99.90;;;;;;5030955;28;20038;-67
2023/05/31 05:04:42;;;;;;;;;;;11.30;99.90;;;;;;5018561;28;20428;-67
2023/05/31 05:07:08;;;;;;;9.57;3.30;;;11.40;99.90;;;;;;5016033;28;19913;-66
2023/05/31 05:09:34;;;;;;;9.20;3.57;;;11.40;99.90;;;;;;5016782;28;20114;-66
2023/05/31 05:12:00;;;;;;;13.87;3.63;;;11.50;99.90;;;;;;5017896;28;20084;-66
2023/05/31 05:14:25;;;;;;;9.07;4.37;;;11.40;99.90;;;;;;5018984;28;20033;-78
2023/05/31 05:16:51;;;;;;;10.07;3.23;;;11.50;99.90;;;;;;5026193;28;20278;-67
2023/05/31 05:19:17;;;;;;;10.03;3.30;;;11.50;99.90;;;;;;5023230;28;20037;-67
2023/05/31 05:21:42;;;;;;;5.70;3.47;;;11.60;99.90;;;;;;5031723;28;20395;-66
2023/05/31 05:24:08;;;;;;;11.57;3.63;;;11.60;99.90;;;;;;5019193;28;20302;-75
2023/05/31 05:26:35;;;;;;;10.30;3.47;;;11.70;99.90;;;;;;5022995;28;20030;-67
2023/05/31 05:29:01;;;;;;;10.70;3.08;;;11.70;99.90;;;;;;5027757;28;20030;-66
2023/05/31 05:31:26;;;;;;;6.83;3.57;;;11.70;99.90;;;;;;5036611;28;20026;-67
2023/05/31 05:33:52;;;;;;;12.93;4.60;;;11.80;99.90;;;;;;5032857;28;20054;-66
2023/05/31 05:36:18;;;;;;;10.47;3.50;;;11.80;99.90;;;;;;5030589;28;20079;-66
2023/05/31 05:38:44;;;;;;;7.93;3.42;;;11.90;99.90;;;;;;5036118;28;20021;-66
2023/05/31 05:41:12;;;;;;;9.53;4.03;;;12.00;99.90;;;;;;5036353;28;20032;-68
2023/05/31 05:43:39;;;;;;;7.68;3.85;;;12.10;99.90;;;;;;5036586;28;20401;-67
2023/05/31 05:46:05;;;;;;;14.95;3.65;;;12.10;99.90;;;;;;5029720;28;20034;-66
2023/05/31 05:48:31;;;;;;;12.17;3.57;;;12.20;99.90;;;;;;5022711;28;21538;-67
2023/05/31 05:50:57;;;;;;;8.65;4.25;;;12.30;99.90;;;;;;5026412;28;20107;-67
2023/05/31 05:53:23;;;;;;;7.70;3.23;;;12.30;99.90;;;;;;5017113;28;20432;-66
2023/05/31 05:55:53;;;;;;;7.03;3.93;;;12.30;99.90;;;;;;5015246;28;20081;-67
2023/05/31 05:58:19;;;;;;;7.15;3.47;;;12.40;99.90;;;;;;5024306;28;20360;-68
2023/05/31 06:00:46;;;;;;;10.10;3.13;;;12.50;99.90;;;;;;5030304;28;20014;-66
2023/05/31 06:03:12;;;;;;;13.32;3.95;;;12.50;99.90;;;;;;5034500;28;20025;-67
2023/05/31 06:05:39;;;;;;;10.00;3.75;;;12.60;99.90;;;;;;5024823;28;20111;-73
2023/05/31 06:08:05;;;;;;;;;;;12.60;99.90;;;;;;5024277;28;20111;-67
2023/05/31 06:10:31;;;;;;;9.32;3.53;;;12.60;99.90;;;;;;5028507;28;20257;-67
2023/05/31 06:12:57;;;;;;;17.30;4.37;;;12.70;99.90;;;;;;5025828;28;20026;-67
2023/05/31 06:15:23;;;;;;;8.65;3.38;;;12.80;99.90;;;;;;5029998;28;20033;-67
2023/05/31 06:17:49;;;;;;;5.60;2.57;;;12.90;99.90;;;;;;5026792;28;20041;-66
2023/05/31 06:20:15;;;;;;;9.10;4.17;;;13.00;99.90;;;;;;5030603;28;20036;-67
2023/05/31 06:22:41;;;;;;;8.20;3.78;;;13.00;99.90;;;;;;5032313;28;20286;-67
2023/05/31 06:25:08;;;;;;;9.40;3.47;;;13.00;99.90;;;;;;5026779;28;20084;-67
2023/05/31 06:27:34;;;;;;;11.95;4.10;;;13.10;99.90;;;;;;5026432;28;20030;-67
2023/05/31 06:30:00;;;;;;;13.57;3.73;;;13.10;99.90;;;;;;5031477;28;20061;-67
2023/05/31 06:32:30;;;;;;;10.55;4.07;;;13.30;99.90;;;;;;5032109;28;20257;-66
2023/05/31 06:35:00;;;;;;;11.88;4.78;;;13.30;99.90;;;;;;5017040;28;20030;-66
2023/05/31 06:37:27;;;;;;;15.18;5.03;;;13.30;99.90;;;;;;5015784;28;20072;-66
2023/05/31 06:39:53;;;;;;;7.93;4.50;;;13.40;99.90;;;;;;5029902;28;20097;-66
2023/05/31 06:42:21;;;;;;;11.38;4.30;;;13.60;99.90;;;;;;5023946;28;20025;-67
2023/05/31 06:44:47;;;;;;;10.73;3.75;;;13.60;99.90;;;;;;5027108;28;20064;-66
2023/05/31 06:47:13;;;;;;;8.05;4.07;;;13.70;99.90;;;;;;5030649;28;20416;-67
2023/05/31 06:49:39;;;;;;;12.50;4.30;;;13.80;99.90;;;;;;5027499;28;20087;-67
2023/05/31 06:52:06;;;;;;;8.90;4.13;;;13.90;99.90;;;;;;5029150;28;20025;-67
2023/05/31 06:54:37;;;;;;;12.20;4.57;;;13.90;99.90;;;;;;5030729;28;20116;-67
2023/05/31 06:57:05;;;;;;;9.63;4.35;;;14.00;99.90;;;;;;5022550;28;20072;-67
2023/05/31 06:59:31;;;;;;;8.50;4.28;;;14.00;99.90;;;;;;5020204;28;20048;-67
2023/05/31 07:01:57;;;;;;;8.63;4.35;;;14.00;99.90;;;;;;5016938;28;20309;-67
2023/05/31 07:04:23;;;;;;;7.50;3.97;;;14.10;99.90;;;;;;5031480;28;20030;-76
2023/05/31 07:06:51;;;;;;;9.50;3.80;;;14.10;99.90;;;;;;5026068;28;20037;-67
2023/05/31 07:09:17;;;;;;;10.60;4.65;;;14.20;99.90;;;;;;5024848;28;20032;-66
2023/05/31 07:11:43;;;;;;;8.60;3.77;;;14.20;99.90;;;;;;5018822;28;20034;-66
2023/05/31 07:14:09;;;;;;;6.30;3.60;;;14.40;99.90;;;;;;5029361;28;20511;-73
2023/05/31 07:16:35;;;;;;;11.73;4.05;;;14.40;99.90;;;;;;5017948;28;20030;-67
2023/05/31 07:19:02;;;;;;;9.48;3.97;;;14.50;99.90;;;;;;5013039;28;20459;-67
2023/05/31 07:21:27;;;;;;;9.82;3.03;;;14.60;99.90;;;;;;5022879;28;20075;-78
2023/05/31 07:23:54;;;;;;;7.60;3.13;;;14.70;99.90;;;;;;5030850;28;20029;-67
2023/05/31 07:26:20;;;;;;;7.53;3.90;;;14.80;99.90;;;;;;5026667;28;20320;-68
2023/05/31 07:28:46;;;;;;;7.40;3.97;;;14.90;99.90;;;;;;5020800;28;20093;-68
2023/05/31 07:31:15;;;;;;;9.27;4.20;;;15.00;99.90;;;;;;5028718;28;20025;-67
2023/05/31 07:33:41;;;;;;;7.25;3.45;;;15.00;99.90;;;;;;5027911;28;20041;-67
2023/05/31 07:36:07;;;;;;;8.05;3.63;;;15.10;99.90;;;;;;5031493;28;20025;-67
2023/05/31 07:38:33;;;;;;;7.20;3.40;;;15.20;99.90;;;;;;5022756;28;20025;-76
2023/05/31 07:40:58;;;;;;;8.03;4.23;;;15.20;99.90;;;;;;5024478;28;20033;-68
2023/05/31 07:43:24;;;;;;;6.43;3.30;;;15.30;99.90;;;;;;5029412;28;20022;-67
2023/05/31 07:45:51;;;;;;;9.40;3.53;;;15.30;99.90;;;;;;5030432;28;20312;-67
2023/05/31 07:48:17;;;;;;;14.27;3.65;;;15.30;99.90;;;;;;5023641;28;20282;-67
2023/05/31 07:50:46;;;;;;;6.25;3.15;;;15.40;99.90;;;;;;5021154;28;20036;-67
2023/05/31 07:53:13;;;;;;;5.55;3.40;;;15.60;99.90;;;;;;5024228;28;20052;-67
2023/05/31 07:55:38;;;;;;;8.63;4.38;;;15.80;99.90;;;;;;5028499;28;20148;-73
2023/05/31 07:58:04;;;;;;;10.63;3.67;;;15.80;99.90;;;;;;5024452;28;20472;-68
2023/05/31 08:00:30;;;;;;;8.43;3.37;;;15.90;99.90;;;;;;5023900;28;20029;-68
2023/05/31 08:02:56;;;;;;;7.67;3.80;;;16.00;99.90;;;;;;5029050;28;20409;-66
2023/05/31 08:05:21;;;;;;;7.13;3.53;;;16.10;99.90;;;;;;5020439;28;20037;-66
2023/05/31 08:07:48;;;;;;;8.13;3.80;;;16.10;99.90;;;;;;5025134;28;20060;-68
2023/05/31 08:10:15;;;;;;;5.05;2.45;;;16.20;99.90;;;;;;5031596;28;20044;-68
2023/05/31 08:12:40;;;;;;;5.45;3.13;;;16.20;99.90;;;;;;5013915;28;20037;-69
2023/05/31 08:15:07;;;;;;;8.93;3.77;;;16.30;99.90;;;;;;5014129;28;20034;-68
2023/05/31 08:17:33;;;;;;;8.02;4.45;;;16.50;99.90;;;;;;5015522;28;20026;-68
2023/05/31 08:19:58;;;;;;;12.20;4.10;;;16.60;99.90;;;;;;5019041;28;20052;-66
2023/05/31 08:22:24;;;;;;;10.23;4.30;;;16.30;99.90;;;;;;5023224;28;20034;-67
2023/05/31 08:24:50;;;;;;;8.33;3.30;;;16.50;99.90;;;;;;5027346;28;20022;-66
2023/05/31 08:27:17;;;;;;;8.65;3.33;;;16.50;99.90;;;;;;5022300;28;20380;-68
2023/05/31 08:29:43;;;;;;;9.60;3.92;;;16.40;99.90;;;;;;5023683;28;20119;-78
2023/05/31 08:32:09;;;;;;;10.60;3.95;;;16.30;99.90;;;;;;5021664;28;20033;-68
2023/05/31 08:34:34;;;;;;;8.27;3.42;;;16.30;99.90;;;;;;5021269;28;20034;-67
2023/05/31 08:37:00;;;;;;;12.03;2.97;;;16.40;99.90;;;;;;5027319;28;20057;-68
2023/05/31 08:39:27;;;;;;;14.50;5.00;;;16.50;99.90;;;;;;5022717;28;20025;-67
2023/05/31 08:42:02;;;;;;;8.88;3.80;;;16.40;99.90;;;;;;5010604;28;20018;-67
2023/05/31 08:44:31;;;;;;;11.52;4.32;;;16.60;99.90;;;;;;5021386;28;20037;-68
2023/05/31 08:47:08;;;;;;;9.25;3.80;;;16.60;99.90;;;;;;5024855;28;20076;-68
2023/05/31 08:49:36;;;;;;;8.95;2.53;;;16.70;99.90;;;;;;5020142;28;20033;-68
2023/05/31 08:52:01;;;;;;;7.43;3.92;;;16.70;99.90;;;;;;5015274;28;20180;-66
2023/05/31 08:54:28;;;;;;;14.57;3.93;;;16.70;99.90;;;;;;5019211;28;20106;-66
2023/05/31 08:56:54;;;;;;;8.05;3.83;;;16.70;99.90;;;;;;5015724;28;20602;-69
2023/05/31 08:59:20;;;;;;;13.35;3.97;;;16.60;99.90;;;;;;5023705;28;20117;-68
2023/05/31 09:01:47;;;;;;;11.48;3.50;;;16.50;99.90;;;;;;5016660;28;20053;-78
2023/05/31 09:04:13;;;;;;;;;;;16.60;99.90;;;;;;5017784;28;20030;-67
2023/05/31 09:06:39;;;;;;;11.30;4.03;;;16.70;99.90;;;;;;5033174;28;19920;-69
2023/05/31 09:09:08;;;;;;;13.93;4.50;;;16.80;99.90;;;;;;5018788;28;20329;-68
2023/05/31 09:11:37;;;;;;;6.93;3.97;;;16.70;99.90;;;;;;5027572;28;20059;-69
2023/05/31 09:14:04;;;;;;;8.50;3.35;;;16.80;99.90;;;;;;5026543;28;20041;-68
2023/05/31 09:16:30;;;;;;;8.68;4.85;;;16.80;99.90;;;;;;5016506;28;20424;-68
2023/05/31 09:19:02;;;;;;;9.33;3.40;;;16.90;99.90;;;;;;5027506;28;20060;-68
2023/05/31 09:21:28;;;;;;;8.05;3.63;;;16.80;99.90;;;;;;5022955;28;20029;-68
2023/05/31 09:23:56;;;;;;;9.77;4.43;;;16.80;99.90;;;;;;5026141;28;20034;-68
2023/05/31 09:26:23;;;;;;;13.23;3.67;;;16.80;99.90;;;;;;5029372;28;20092;-67
2023/05/31 09:28:52;;;;;;;9.23;3.78;;;16.90;99.90;;;;;;5028920;28;20087;-68
2023/05/31 09:31:20;;;;;;;7.10;3.45;;;16.90;99.90;;;;;;5022877;28;20452;-69
2023/05/31 09:33:48;;;;;;;9.48;4.55;;;17.00;99.90;;;;;;5027310;28;20036;-68
2023/05/31 09:36:22;;;;;;;13.80;4.80;;;17.10;99.90;;;;;;5033379;28;20128;-68
2023/05/31 09:38:49;;;;;;;8.07;4.53;;;17.10;99.90;;;;;;5023932;28;20018;-79
2023/05/31 09:41:20;;;;;;;11.05;4.10;;;17.20;99.90;;;;;;5025176;28;20037;-77
2023/05/31 09:43:50;;;;;;;13.07;5.82;;;17.30;99.90;;;;;;5024476;28;20030;-69
2023/05/31 09:46:21;;;;;;;15.18;4.70;;;17.30;99.90;;;;;;5017776;28;20026;-68
2023/05/31 09:49:01;;;;;;;9.85;4.60;;;17.30;99.90;;;;;;5015674;28;20324;-67
2023/05/31 09:51:27;;;;;;;9.40;4.28;;;17.20;99.90;;;;;;5026493;28;20037;-68
2023/05/31 09:53:55;;;;;;;13.48;4.97;;;17.20;99.90;;;;;;5032517;28;20079;-68
2023/05/31 09:56:22;;;;;;;14.27;4.10;;;17.30;99.90;;;;;;5026569;28;20086;-68
2023/05/31 09:58:51;;;;;;;12.48;5.18;;;17.20;99.90;;;;;;5026152;28;20101;-67
2023/05/31 10:01:17;;;;;;;8.95;4.05;;;17.10;99.90;;;;;;5034944;28;20037;-68
2023/05/31 10:03:44;;;;;;;14.38;5.32;;;17.00;99.90;;;;;;5018550;28;20443;-68
2023/05/31 10:06:11;;;;;;;;;;;17.10;99.90;;;;;;5027257;28;20065;-67
2023/05/31 10:08:37;;;;;;;11.60;4.30;;;17.30;99.90;;;;;;5023836;28;20330;-67
2023/05/31 10:11:03;;;;;;;9.77;4.57;;;17.40;99.90;;;;;;5030721;28;20029;-67
2023/05/31 10:13:31;;;;;;;11.20;4.40;;;17.40;99.90;;;;;;5024911;28;20026;-67
2023/05/31 10:16:07;;;;;;;12.38;5.22;;;17.40;99.90;;;;;;5038071;28;20429;-68
2023/05/31 10:18:35;;;;;;;;;;;17.50;99.90;;;;;;5022300;28;20045;-67
2023/05/31 10:21:04;;;;;;;9.90;4.35;;;17.50;99.90;;;;;;5029954;28;20399;-68
2023/05/31 10:23:35;;;;;;;12.48;5.22;;;17.70;99.90;;;;;;5016635;28;20084;-68
2023/05/31 10:26:20;;;;;;;9.13;3.65;;;17.80;99.90;;;;;;5011319;28;20425;-68
2023/05/31 10:28:48;;;;;;;12.10;5.05;;;17.70;99.90;;;;;;5012544;28;20415;-68
2023/05/31 10:31:14;;;;;;;12.40;4.60;;;17.60;99.90;;;;;;5016658;28;20339;-68
2023/05/31 10:33:47;;;;;;;11.18;5.50;;;17.60;99.90;;;;;;5036085;28;20025;-68
2023/05/31 10:36:14;;;;;;;8.68;5.05;;;17.60;99.90;;;;;;5021640;28;20046;-68
2023/05/31 10:39:03;;;;;;;10.68;4.68;;;17.80;99.90;;;;;;5035045;28;20017;-67
2023/05/31 10:41:40;;;;;;;7.22;3.20;;;17.70;99.90;;;;;;5030870;28;20042;-68
2023/05/31 10:44:18;;;;;;;11.98;5.15;;;17.70;99.90;;;;;;5027615;28;20033;-68
2023/05/31 10:46:48;;;;;;;19.15;4.78;;;17.80;99.90;;;;;;5016058;28;20030;-67
2023/05/31 10:49:15;;;;;;;11.07;3.28;;;17.80;99.90;;;;;;5035702;28;20044;-69
2023/05/31 10:51:46;;;;;;;29.08;5.22;;;17.70;99.90;;;;;;5021358;28;20018;-69
2023/05/31 10:54:20;;;;;;;10.40;5.47;;;17.70;99.90;;;;;;5009194;28;20324;-69
2023/05/31 10:56:57;;;;;;;10.38;4.93;;;17.80;99.90;;;;;;5022922;28;20339;-68
2023/05/31 10:59:23;;;;;;;12.82;5.28;;;17.70;99.90;;;;;;5034365;28;20020;-67
2023/05/31 11:01:50;;;;;;;10.60;5.07;;;17.60;99.90;;;;;;5025597;28;20026;-68
2023/05/31 11:04:27;;;;;;;10.77;6.00;;;17.70;99.90;;;;;;5021193;28;20057;-68
2023/05/31 11:06:54;;;;;;;13.55;5.88;;;17.70;99.90;;;;;;5016175;28;20038;-68
2023/05/31 11:09:21;;;;;;;13.70;6.50;;;17.90;99.90;;;;;;5028726;28;20029;-69
2023/05/31 11:11:49;;;;;;;9.43;5.43;;;17.90;99.90;;;;;;5027064;28;20372;-68
2023/05/31 11:14:26;;;;;;;10.23;5.28;;;18.00;99.90;;;;;;5029439;28;20369;-68
2023/05/31 11:17:03;;;;;;;11.48;4.15;;;18.10;99.90;;;;;;5033179;28;20028;-69
2023/05/31 11:19:36;;;;;;;12.20;4.70;;;18.10;99.90;;;;;;5015520;28;20131;-74
2023/05/31 11:22:15;;;;;;;10.60;5.00;;;18.20;99.90;;;;;;5023702;28;20027;-68
2023/05/31 11:24:50;;;;;;;5.75;2.92;;;18.30;99.90;;;;;;5030027;28;20057;-76
2023/05/31 11:27:18;;;;;;;9.35;4.32;;;18.30;99.90;;;;;;5027556;28;20025;-78
2023/05/31 11:29:52;;;;;;;14.57;5.32;;;18.10;99.90;;;;;;5024268;28;20052;-69
2023/05/31 11:32:19;;;;;;;10.65;5.03;;;18.10;99.90;;;;;;5027342;28;20104;-68
2023/05/31 11:35:11;;;;;;;11.90;5.43;;;18.10;99.90;;;;;;5031706;28;20351;-77
2023/05/31 11:37:37;;;;;;;9.10;4.00;;;18.20;99.90;;;;;;5030521;28;20083;-80
2023/05/31 11:40:08;;;;;;;15.75;5.40;;;18.10;99.90;;;;;;5028244;28;20029;-68
2023/05/31 11:42:39;;;;;;;9.80;4.82;;;18.00;99.90;;;;;;5031745;28;20021;-68
2023/05/31 11:45:07;;;;;;;9.98;4.50;;;18.20;99.90;;;;;;5026838;28;20412;-69
2023/05/31 11:47:46;;;;;;;8.38;4.40;;;18.30;99.90;;;;;;5032090;28;20029;-68
2023/05/31 11:50:13;;;;;;;13.38;4.57;;;18.30;99.90;;;;;;5024620;28;20052;-69
2023/05/31 11:52:40;;;;;;;11.57;4.05;;;18.50;99.90;;;;;;5029200;28;20037;-68
2023/05/31 11:55:07;;;;;;;9.55;4.57;;;18.40;99.90;;;;;;5030943;28;20037;-68
2023/05/31 11:57:41;;;;;;;8.63;3.65;;;18.40;99.90;;;;;;5024165;28;20036;-68
2023/05/31 12:00:11;;;;;;;12.55;4.53;;;18.30;99.90;;;;;;5027679;28;20060;-68
2023/05/31 12:02:39;;;;;;;14.38;5.65;;;18.30;99.90;;;;;;5029119;28;20637;-68
2023/05/31 12:05:05;;;;;;;9.95;5.03;;;18.50;99.90;;;;;;5022740;28;20310;-76
2023/05/31 12:07:32;;;;;;;9.27;4.18;;;18.80;99.90;;;;;;5014209;28;20033;-69
2023/05/31 12:09:58;;;;;;;12.85;4.88;;;18.80;99.90;;;;;;5015063;28;20036;-68
2023/05/31 12:12:25;;;;;;;13.50;4.13;;;18.80;99.90;;;;;;5012349;28;20029;-67
2023/05/31 12:14:51;;;;;;;;;;;18.70;99.90;;;;;;5014345;28;20026;-69
2023/05/31 12:17:17;;;;;;;8.75;4.50;;;18.70;99.90;;;;;;5013469;28;20328;-68
2023/05/31 12:19:43;;;;;;;13.73;5.13;;;18.60;99.90;;;;;;5014036;28;20032;-69
2023/05/31 12:22:08;;;;;;;9.30;3.90;;;18.40;99.90;;;;;;5012722;28;20033;-67
2023/05/31 12:24:36;;;;;;;9.80;4.93;;;18.30;99.90;;;;;;5015572;28;20030;-68
2023/05/31 12:27:02;;;;;;;7.80;3.88;;;18.40;99.90;;;;;;5041848;28;20026;-68
2023/05/31 12:29:30;;;;;;;6.23;3.83;;;18.60;99.90;;;;;;5014628;28;20428;-68
2023/05/31 12:32:06;;;;;;;8.18;4.55;;;18.60;99.90;;;;;;5007711;28;20593;-77
2023/05/31 12:34:37;;;;;;;13.75;4.40;;;18.80;99.90;;;;;;5018375;28;20037;-69
2023/05/31 12:37:06;;;;;;;11.32;4.75;;;18.50;99.90;;;;;;5014907;28;20018;-68
2023/05/31 12:39:33;;;;;;;11.13;4.40;;;18.30;99.90;;;;;;5021969;28;20017;-68
2023/05/31 12:41:59;;;;;;;15.50;4.60;;;18.50;99.90;;;;;;5032604;28;20030;-68
2023/05/31 12:44:26;;;;;;;4.10;2.25;;;18.50;99.90;;;;;;5024957;28;20101;-68
2023/05/31 12:46:57;;;;;;;6.03;2.33;;;18.40;99.90;;;;;;5016824;28;20491;-77
2023/05/31 12:49:27;;;;;;;8.40;2.80;;;18.40;99.90;;;;;;5027953;28;20057;-69